Time;durP1;ratioP1;P1;durP2;ratioP2;P2;SDS_P1;SDS_P2;PMS_P1;PMS_P2;Temp;Humidity;BMP_temperature;BMP_pressure;BME280_temperature;BME280_humidity;BME280_pressure;Samples;Min_cycle;Max_cycle;Signal;HPM_P1;HPM_P2
2023/04/29 00:02:19;;;;;;;38.13;12.37;;;13.20;99.90;;;;;;5074201;27;20486;-62
2023/04/29 00:04:46;;;;;;;19.33;7.77;;;13.20;99.90;;;;;;5054481;28;21007;-62
2023/04/29 00:07:14;;;;;;;23.07;8.83;;;13.10;99.90;;;;;;5057542;28;20477;-61
2023/04/29 00:09:42;;;;;;;31.33;10.00;;;13.00;99.90;;;;;;5051391;28;20697;-61
2023/04/29 00:12:09;;;;;;;19.97;7.83;;;13.00;99.90;;;;;;5072153;27;20540;-62
2023/04/29 00:14:36;;;;;;;33.43;9.80;;;12.90;99.90;;;;;;5063810;28;20495;-61
2023/04/29 00:17:03;;;;;;;25.90;9.27;;;12.90;99.90;;;;;;5053539;28;20488;-62
2023/04/29 00:19:30;;;;;;;34.57;11.90;;;13.00;99.90;;;;;;5051356;28;21053;-63
2023/04/29 00:21:57;;;;;;;17.87;7.33;;;13.10;99.90;;;;;;5056155;28;20920;-62
2023/04/29 00:24:24;;;;;;;47.87;14.70;;;13.20;99.90;;;;;;5055315;28;20483;-62
2023/04/29 00:26:52;;;;;;;12.83;6.33;;;13.30;99.90;;;;;;5055925;28;20482;-62
2023/04/29 00:29:19;;;;;;;37.43;12.57;;;13.30;99.90;;;;;;5054017;28;20893;-62
2023/04/29 00:31:46;;;;;;;14.90;6.80;;;13.30;99.90;;;;;;5054806;28;20491;-61
2023/04/29 00:34:13;;;;;;;30.83;10.67;;;13.40;99.90;;;;;;5052380;28;20810;-61
2023/04/29 00:36:39;;;;;;;27.33;10.00;;;13.40;99.90;;;;;;5057774;27;20470;-62
2023/04/29 00:39:06;;;;;;;20.27;8.00;;;13.50;99.90;;;;;;5067275;28;20566;-61
2023/04/29 00:41:34;;;;;;;18.57;7.60;;;13.60;99.90;;;;;;5053310;28;20507;-62
2023/04/29 00:44:02;;;;;;;23.23;9.30;;;13.60;99.90;;;;;;5053348;28;20814;-62
2023/04/29 00:46:29;;;;;;;37.93;12.53;;;13.70;99.90;;;;;;5053301;28;20471;-62
2023/04/29 00:48:56;;;;;;;19.80;6.77;;;13.80;99.90;;;;;;5053164;28;21012;-62
2023/04/29 00:51:23;;;;;;;45.33;14.23;;;13.80;99.90;;;;;;5053995;28;20475;-62
2023/04/29 00:53:49;;;;;;;29.97;9.53;;;13.80;99.90;;;;;;5053960;28;20487;-62
2023/04/29 00:56:17;;;;;;;29.80;9.80;;;13.80;99.90;;;;;;5053546;28;20895;-62
2023/04/29 00:58:48;;;;;;;14.70;6.97;;;13.80;99.90;;;;;;5075815;28;20564;-62
2023/04/29 01:01:17;;;;;;;25.63;8.83;;;13.90;99.90;;;;;;5041989;28;20463;-62
2023/04/29 01:03:44;;;;;;;17.13;6.50;;;13.90;99.90;;;;;;5033753;28;20472;-62
2023/04/29 01:06:20;;;;;;;13.83;6.50;;;13.50;99.90;;;;;;5030909;28;20476;-62
2023/04/29 01:09:01;;;;;;;9.73;5.37;;;13.80;99.90;;;;;;5024802;28;20637;-62
2023/04/29 01:11:35;;;;;;;35.00;11.57;;;13.90;99.90;;;;;;5039970;28;20795;-61
2023/04/29 01:14:03;;;;;;;22.87;5.83;;;13.90;99.90;;;;;;5051745;28;20483;-62
2023/04/29 01:16:37;;;;;;;31.53;10.50;;;13.80;99.90;;;;;;5048117;28;20491;-62
2023/04/29 01:19:11;;;;;;;19.53;8.20;;;;;;;;;;5052896;28;20479;-62
2023/04/29 01:21:47;;;;;;;73.90;29.20;;;13.80;99.90;;;;;;5047421;28;20570;-62
2023/04/29 01:24:15;;;;;;;24.17;8.70;;;13.80;99.90;;;;;;5050146;28;20474;-62
2023/04/29 01:26:46;;;;;;;17.63;6.50;;;13.80;99.90;;;;;;5047632;28;20471;-62
2023/04/29 01:29:26;;;;;;;24.90;8.13;;;13.80;99.90;;;;;;5051654;28;20918;-62
2023/04/29 01:32:03;;;;;;;19.27;7.10;;;13.60;99.90;;;;;;5044562;28;20982;-62
2023/04/29 01:34:35;;;;;;;30.00;8.90;;;13.60;99.90;;;;;;5052598;28;20474;-62
2023/04/29 01:37:13;;;;;;;21.47;7.57;;;13.70;99.90;;;;;;5052949;28;20484;-62
2023/04/29 01:39:46;;;;;;;19.90;6.40;;;13.60;99.90;;;;;;5052167;28;20479;-61
2023/04/29 01:42:19;;;;;;;22.40;7.47;;;13.60;99.90;;;;;;5053929;28;20482;-61
2023/04/29 01:44:49;;;;;;;21.73;8.17;;;13.50;99.90;;;;;;5052441;28;20486;-62
2023/04/29 01:47:16;;;;;;;36.53;10.87;;;13.50;99.90;;;;;;5051954;28;20479;-61
2023/04/29 01:49:45;;;;;;;28.50;7.47;;;13.50;99.90;;;;;;5051191;28;20472;-62
2023/04/29 01:52:12;;;;;;;21.27;7.80;;;13.50;99.90;;;;;;5051576;28;20570;-61
2023/04/29 01:54:39;;;;;;;26.37;8.40;;;13.40;99.90;;;;;;5049562;28;20831;-62
2023/04/29 01:57:07;;;;;;;16.40;6.60;;;13.30;99.90;;;;;;5052673;28;20826;-61
2023/04/29 01:59:34;;;;;;;30.67;9.67;;;13.30;99.90;;;;;;5054179;28;21235;-62
2023/04/29 02:02:01;;;;;;;21.80;7.40;;;13.30;99.90;;;;;;5051514;28;20987;-62
2023/04/29 02:04:27;;;;;;;30.77;9.83;;;13.20;99.90;;;;;;5050672;28;20853;-62
2023/04/29 02:06:54;;;;;;;15.87;6.03;;;13.10;99.90;;;;;;5051713;28;21015;-62
2023/04/29 02:09:21;;;;;;;43.67;12.33;;;13.00;99.90;;;;;;5053050;28;20487;-62
2023/04/29 02:11:47;;;;;;;15.43;6.57;;;12.80;99.90;;;;;;5051126;28;20490;-61
2023/04/29 02:14:15;;;;;;;24.53;8.90;;;12.80;99.90;;;;;;5074627;27;20798;-61
2023/04/29 02:16:45;;;;;;;20.67;7.73;;;12.90;99.90;;;;;;5053612;28;20497;-61
2023/04/29 02:19:11;;;;;;;18.43;5.90;;;12.80;99.90;;;;;;5068274;28;20566;-62
2023/04/29 02:21:38;;;;;;;24.07;8.17;;;12.80;99.90;;;;;;5051711;28;20511;-62
2023/04/29 02:24:05;;;;;;;17.93;6.27;;;12.70;99.90;;;;;;5050628;28;20894;-61
2023/04/29 02:26:33;;;;;;;22.90;7.03;;;12.60;99.90;;;;;;5050376;28;20475;-61
2023/04/29 02:28:59;;;;;;;24.57;9.27;;;12.70;99.90;;;;;;5051321;28;20487;-61
2023/04/29 02:31:27;;;;;;;43.60;13.03;;;12.70;99.90;;;;;;5050862;28;20482;-62
2023/04/29 02:33:54;;;;;;;18.10;5.63;;;12.50;99.90;;;;;;5052388;28;20573;-61
2023/04/29 02:36:21;;;;;;;41.60;12.27;;;11.20;99.90;;;;;;5052594;28;20613;-62
2023/04/29 02:38:49;;;;;;;11.70;5.30;;;12.30;99.90;;;;;;5048980;28;20490;-62
2023/04/29 02:41:17;;;;;;;31.00;10.27;;;12.20;99.90;;;;;;5071043;28;20477;-62
2023/04/29 02:43:43;;;;;;;16.83;6.00;;;12.10;99.90;;;;;;5049423;28;20995;-62
2023/04/29 02:46:10;;;;;;;22.67;8.20;;;12.00;99.90;;;;;;5053285;28;20495;-61
2023/04/29 02:48:38;;;;;;;17.27;6.40;;;12.00;99.90;;;;;;5054910;28;20474;-61
2023/04/29 02:51:05;;;;;;;23.60;8.60;;;12.00;99.90;;;;;;5038580;28;20480;-61
2023/04/29 02:53:32;;;;;;;18.20;7.13;;;11.90;99.90;;;;;;5071951;28;20475;-60
2023/04/29 02:55:59;;;;;;;22.80;6.33;;;12.00;99.90;;;;;;5052475;28;20598;-61
2023/04/29 02:58:25;;;;;;;43.17;13.70;;;12.10;99.90;;;;;;5047988;28;20996;-61
2023/04/29 03:00:52;;;;;;;21.23;7.70;;;12.10;99.90;;;;;;5053109;28;20479;-61
2023/04/29 03:03:19;;;;;;;33.40;10.73;;;13.90;99.90;;;;;;5060065;28;20486;-61
2023/04/29 03:05:47;;;;;;;17.67;7.20;;;12.20;99.90;;;;;;5055422;27;20515;-62
2023/04/29 03:08:14;;;;;;;23.60;8.70;;;12.20;99.90;;;;;;5081889;27;20471;-61
2023/04/29 03:10:41;;;;;;;25.93;9.10;;;12.10;99.90;;;;;;5054395;28;20554;-62
2023/04/29 03:13:08;;;;;;;19.23;6.93;;;12.10;99.90;;;;;;5055431;28;20558;-61
2023/04/29 03:15:35;;;;;;;31.33;10.33;;;12.20;99.90;;;;;;5055878;28;20846;-62
2023/04/29 03:18:03;;;;;;;19.37;6.33;;;12.10;99.90;;;;;;5054795;28;20490;-61
2023/04/29 03:20:31;;;;;;;30.63;9.93;;;11.90;99.90;;;;;;5074445;27;20895;-61
2023/04/29 03:22:59;;;;;;;16.83;5.83;;;11.70;99.90;;;;;;5057163;28;20509;-61
2023/04/29 03:25:27;;;;;;;33.37;9.37;;;11.40;99.90;;;;;;5054327;28;20613;-61
2023/04/29 03:27:54;;;;;;;24.97;8.30;;;;;;;;;;5053859;28;20994;-61
2023/04/29 03:30:21;;;;;;;57.27;15.50;;;;;;;;;;5053164;28;20486;-62
2023/04/29 03:32:48;;;;;;;21.40;7.23;;;;;;;;;;5055232;28;20880;-61
2023/04/29 03:35:15;;;;;;;27.83;8.27;;;11.40;99.90;;;;;;5056180;28;20841;-60
2023/04/29 03:37:43;;;;;;;27.23;9.13;;;;;;;;;;5044093;28;20953;-61
2023/04/29 03:40:13;;;;;;;22.97;7.50;;;11.40;99.90;;;;;;5056787;28;20479;-61
2023/04/29 03:42:39;;;;;;;19.00;7.63;;;11.40;99.90;;;;;;5057652;28;20483;-61
2023/04/29 03:45:07;;;;;;;24.60;8.13;;;;;;;;;;5056367;28;20975;-61
2023/04/29 03:47:34;;;;;;;30.87;9.60;;;;;;;;;;5054894;28;20485;-60
2023/04/29 03:50:01;;;;;;;27.83;8.60;;;11.40;99.90;;;;;;5058018;28;20503;-61
2023/04/29 03:52:28;;;;;;;45.17;12.20;;;;;;;;;;5052807;28;20471;-61
2023/04/29 03:54:55;;;;;;;49.47;11.00;;;11.40;99.90;;;;;;5057134;28;20510;-61
2023/04/29 03:57:23;;;;;;;55.87;13.23;;;11.20;99.90;;;;;;5055422;28;20479;-60
2023/04/29 03:59:49;;;;;;;19.47;7.50;;;11.30;99.90;;;;;;5053436;28;20995;-60
2023/04/29 04:02:16;;;;;;;40.13;11.00;;;;;;;;;;5054308;28;20995;-61
2023/04/29 04:04:43;;;;;;;25.03;7.07;;;;;;;;;;5058045;28;20483;-61
2023/04/29 04:07:10;;;;;;;28.37;8.37;;;11.00;99.90;;;;;;5057291;28;20485;-61
2023/04/29 04:09:37;;;;;;;28.10;8.57;;;10.90;99.90;;;;;;5055294;28;20481;-61
2023/04/29 04:12:04;;;;;;;27.43;8.80;;;12.30;99.90;;;;;;5055731;28;20483;-60
2023/04/29 04:14:33;;;;;;;49.07;12.63;;;10.90;99.90;;;;;;5055618;28;20816;-61
2023/04/29 04:17:00;;;;;;;33.30;9.47;;;10.80;99.90;;;;;;5066529;28;20475;-61
2023/04/29 04:19:28;;;;;;;43.83;10.67;;;;;;;;;;5075859;28;20978;-61
2023/04/29 04:21:55;;;;;;;19.73;5.93;;;;;;;;;;5075953;28;20543;-60
2023/04/29 04:24:22;;;;;;;30.30;8.40;;;;;;;;;;5076313;28;20911;-60
2023/04/29 04:26:49;;;;;;;30.70;8.77;;;;;;;;;;5073486;28;20496;-61
2023/04/29 04:29:16;;;;;;;25.67;8.00;;;;;;;;;;5073163;28;20474;-61
2023/04/29 04:31:44;;;;;;;23.97;7.87;;;10.30;99.90;;;;;;5076840;28;20455;-61
2023/04/29 04:34:11;;;;;;;28.43;8.27;;;;;;;;;;5074229;28;20486;-61
2023/04/29 04:36:37;;;;;;;41.17;10.37;;;10.40;99.90;;;;;;5038481;28;20840;-61
2023/04/29 04:39:04;;;;;;;26.10;9.20;;;;;;;;;;5038898;28;20480;-62
2023/04/29 04:41:31;;;;;;;41.30;12.13;;;10.40;99.90;;;;;;5052009;28;20476;-61
2023/04/29 04:43:58;;;;;;;31.67;9.27;;;10.50;99.90;;;;;;5046455;28;20488;-61
2023/04/29 04:46:25;;;;;;;45.53;12.10;;;;;;;;;;5058675;28;20812;-62
2023/04/29 04:48:53;;;;;;;21.50;7.83;;;10.50;99.90;;;;;;5054612;28;22545;-62
2023/04/29 04:51:20;;;;;;;40.27;11.37;;;10.50;99.90;;;;;;5050893;28;20471;-61
2023/04/29 04:53:47;;;;;;;18.77;6.70;;;10.40;99.90;;;;;;5058503;28;20521;-61
2023/04/29 04:56:14;;;;;;;24.70;8.20;;;;;;;;;;5057708;28;20488;-61
2023/04/29 04:58:41;;;;;;;19.20;7.60;;;;;;;;;;5049191;28;20492;-61
2023/04/29 05:01:08;;;;;;;19.53;7.93;;;;;;;;;;5059224;28;20476;-61
2023/04/29 05:03:35;;;;;;;24.83;7.90;;;10.70;99.90;;;;;;5059457;28;21086;-62
2023/04/29 05:06:03;;;;;;;18.53;7.37;;;10.80;99.90;;;;;;5053108;28;20593;-61
2023/04/29 05:08:30;;;;;;;35.73;11.87;;;;;;;;;;5066868;28;20728;-61
2023/04/29 05:10:57;;;;;;;28.37;9.70;;;;;;;;;;5053916;28;20480;-61
2023/04/29 05:13:25;;;;;;;35.53;10.70;;;11.00;99.90;;;;;;5022397;28;20508;-61
2023/04/29 05:15:51;;;;;;;78.87;19.87;;;11.00;99.90;;;;;;5042369;28;20500;-61
2023/04/29 05:18:18;;;;;;;32.20;10.80;;;11.00;99.90;;;;;;5038302;28;20484;-61
2023/04/29 05:20:45;;;;;;;17.37;8.33;;;11.10;99.90;;;;;;5044558;28;20495;-61
2023/04/29 05:23:13;;;;;;;19.87;8.80;;;11.00;99.90;;;;;;5058826;28;20498;-61
2023/04/29 05:25:40;;;;;;;24.90;9.47;;;11.30;99.90;;;;;;5041961;28;20895;-61
2023/04/29 05:28:07;;;;;;;26.57;11.97;;;11.40;99.90;;;;;;5043574;28;20479;-61
2023/04/29 05:30:34;;;;;;;36.50;14.07;;;11.60;99.90;;;;;;5055020;28;20519;-61
2023/04/29 05:33:01;;;;;;;24.30;10.90;;;11.80;99.90;;;;;;5037603;28;20542;-61
2023/04/29 05:35:27;;;;;;;39.83;15.07;;;12.00;99.90;;;;;;5040775;28;20487;-61
2023/04/29 05:37:54;;;;;;;22.63;11.90;;;12.10;99.90;;;;;;5051626;28;20480;-62
2023/04/29 05:40:22;;;;;;;56.63;20.37;;;12.20;99.90;;;;;;5039565;28;20520;-62
2023/04/29 05:42:49;;;;;;;41.43;13.60;;;12.30;99.90;;;;;;5032049;28;21281;-61
2023/04/29 05:45:16;;;;;;;39.33;16.83;;;12.40;99.90;;;;;;5036625;28;20489;-61
2023/04/29 05:47:43;;;;;;;24.67;11.50;;;12.40;99.90;;;;;;5032414;28;20487;-61
2023/04/29 05:50:10;;;;;;;26.30;12.37;;;12.50;99.90;;;;;;5050436;28;20888;-61
2023/04/29 05:52:37;;;;;;;36.20;13.83;;;12.60;99.90;;;;;;5053076;28;20483;-61
2023/04/29 05:55:04;;;;;;;28.33;13.40;;;12.60;99.90;;;;;;5038698;28;20476;-61
2023/04/29 05:57:32;;;;;;;30.90;13.50;;;12.70;99.90;;;;;;5055707;28;20485;-61
2023/04/29 05:59:59;;;;;;;25.70;12.50;;;12.80;99.90;;;;;;5044680;28;21085;-61
2023/04/29 06:02:25;;;;;;;29.70;13.20;;;12.80;99.90;;;;;;5042174;28;20546;-61
2023/04/29 06:04:52;;;;;;;39.23;13.50;;;13.10;99.90;;;;;;5055548;28;20473;-62
2023/04/29 06:07:19;;;;;;;34.60;15.50;;;13.20;99.90;;;;;;5053635;28;20518;-62
2023/04/29 06:09:46;;;;;;;16.10;9.20;;;13.30;99.90;;;;;;5058352;28;20491;-61
2023/04/29 06:12:13;;;;;;;30.17;11.87;;;13.40;99.90;;;;;;5050205;28;20495;-61
2023/04/29 06:14:41;;;;;;;18.33;10.83;;;13.40;99.90;;;;;;5060369;28;20490;-61
2023/04/29 06:17:07;;;;;;;28.90;13.20;;;13.40;99.90;;;;;;5050638;28;20472;-62
2023/04/29 06:19:34;;;;;;;32.97;11.87;;;13.30;99.90;;;;;;5046206;28;20467;-62
2023/04/29 06:22:01;;;;;;;20.07;11.00;;;13.50;99.90;;;;;;5055645;28;20491;-62
2023/04/29 06:24:28;;;;;;;33.33;14.80;;;13.50;99.90;;;;;;5053255;28;20750;-62
2023/04/29 06:26:54;;;;;;;23.63;12.50;;;13.60;99.90;;;;;;5053274;28;20492;-62
2023/04/29 06:29:21;;;;;;;35.73;16.93;;;13.70;99.90;;;;;;5047418;28;20480;-62
2023/04/29 06:31:49;;;;;;;21.83;11.60;;;13.90;99.90;;;;;;5044934;28;20487;-62
2023/04/29 06:34:16;;;;;;;32.03;11.93;;;14.00;99.90;;;;;;5052001;28;20495;-62
2023/04/29 06:36:43;;;;;;;16.80;10.30;;;14.00;99.90;;;;;;5045250;28;20833;-62
2023/04/29 06:39:10;;;;;;;27.47;14.20;;;14.00;99.90;;;;;;5047263;28;20521;-62
2023/04/29 06:41:36;;;;;;;22.13;11.80;;;14.10;99.90;;;;;;5025994;28;20484;-61
2023/04/29 06:44:03;;;;;;;18.90;11.73;;;14.10;99.90;;;;;;5020850;28;20491;-62
2023/04/29 06:46:30;;;;;;;35.80;14.20;;;14.10;99.90;;;;;;5037012;28;20494;-62
2023/04/29 06:48:58;;;;;;;23.40;11.90;;;14.20;99.90;;;;;;5032325;28;20708;-62
2023/04/29 06:51:26;;;;;;;35.43;16.03;;;14.20;99.90;;;;;;5042162;28;20480;-62
2023/04/29 06:53:53;;;;;;;20.30;12.63;;;14.20;99.90;;;;;;5035388;28;20497;-62
2023/04/29 06:56:20;;;;;;;32.00;15.30;;;14.20;99.90;;;;;;5033871;28;20897;-61
2023/04/29 06:58:47;;;;;;;17.57;9.93;;;14.30;99.90;;;;;;5024652;28;20483;-62
2023/04/29 07:01:20;;;;;;;23.87;12.63;;;14.30;99.90;;;;;;5044947;28;20494;-62
2023/04/29 07:03:46;;;;;;;23.53;10.77;;;14.40;99.90;;;;;;5042945;28;20472;-61
2023/04/29 07:06:15;;;;;;;25.83;14.20;;;14.40;99.90;;;;;;5073560;28;20473;-62
2023/04/29 07:08:41;;;;;;;24.83;12.00;;;14.40;99.90;;;;;;5067366;28;20585;-62
2023/04/29 07:11:08;;;;;;;24.33;10.80;;;14.50;99.90;;;;;;5076833;27;20522;-62
2023/04/29 07:13:35;;;;;;;24.73;14.13;;;14.60;99.90;;;;;;5070960;27;20486;-62
2023/04/29 07:16:01;;;;;;;21.07;12.10;;;14.50;99.90;;;;;;5078714;28;20511;-62
2023/04/29 07:18:28;;;;;;;37.33;16.03;;;14.60;99.90;;;;;;5074004;28;20489;-62
2023/04/29 07:20:55;;;;;;;18.13;11.20;;;14.70;99.90;;;;;;5072705;28;20489;-61
2023/04/29 07:23:23;;;;;;;30.87;15.13;;;14.80;99.90;;;;;;5078826;27;20477;-62
2023/04/29 07:25:51;;;;;;;25.20;12.10;;;15.00;99.90;;;;;;5076709;28;20840;-62
2023/04/29 07:28:17;;;;;;;32.00;16.70;;;15.00;99.90;;;;;;5070178;27;21102;-61
2023/04/29 07:30:44;;;;;;;18.93;10.57;;;15.10;99.90;;;;;;5069895;28;20987;-62
2023/04/29 07:33:11;;;;;;;27.50;11.70;;;15.20;99.90;;;;;;5065782;28;20486;-61
2023/04/29 07:35:40;;;;;;;26.83;13.00;;;15.20;99.40;;;;;;5072943;28;20485;-61
2023/04/29 07:38:07;;;;;;;28.50;14.37;;;15.30;99.90;;;;;;5063205;28;20859;-62
2023/04/29 07:40:35;;;;;;;27.27;12.87;;;15.30;99.90;;;;;;5062153;27;20493;-62
2023/04/29 07:43:04;;;;;;;25.70;13.10;;;15.10;99.60;;;;;;5077829;27;20505;-62
2023/04/29 07:45:31;;;;;;;36.90;15.87;;;15.10;99.10;;;;;;5074820;28;20832;-61
2023/04/29 07:47:57;;;;;;;34.43;12.70;;;15.10;99.40;;;;;;5076966;28;20485;-61
2023/04/29 07:50:24;;;;;;;49.67;18.53;;;15.10;99.90;;;;;;5080687;28;20489;-62
2023/04/29 07:52:53;;;;;;;26.50;13.63;;;15.20;99.90;;;;;;5070042;27;20917;-62
2023/04/29 07:55:20;;;;;;;39.97;17.40;;;15.30;99.90;;;;;;5078709;28;20536;-62
2023/04/29 07:57:49;;;;;;;19.83;11.40;;;15.30;99.00;;;;;;5074321;28;21046;-62
2023/04/29 08:00:16;;;;;;;28.57;13.10;;;;;;;;;;5068821;28;25119;-62
2023/04/29 08:02:43;;;;;;;17.60;9.93;;;15.30;98.60;;;;;;5070492;28;20566;-62
2023/04/29 08:05:10;;;;;;;23.97;12.27;;;15.30;98.50;;;;;;5073842;28;20850;-61
2023/04/29 08:07:37;;;;;;;24.80;12.67;;;;;;;;;;5075234;28;20482;-61
2023/04/29 08:10:04;;;;;;;28.73;13.60;;;15.10;98.20;;;;;;5073362;28;20488;-62
2023/04/29 08:12:31;;;;;;;37.23;15.80;;;15.10;99.00;;;;;;5068962;28;20478;-62
2023/04/29 08:14:59;;;;;;;23.80;11.80;;;16.40;99.00;;;;;;5073530;27;22250;-61
2023/04/29 08:17:26;;;;;;;41.03;16.30;;;15.10;98.60;;;;;;5084897;28;20490;-62
2023/04/29 08:19:53;;;;;;;18.23;9.77;;;15.20;98.80;;;;;;5079281;28;20471;-61
2023/04/29 08:22:20;;;;;;;54.37;19.90;;;15.20;99.20;;;;;;5076246;28;20893;-62
2023/04/29 08:24:47;;;;;;;20.50;11.43;;;15.10;98.90;;;;;;5076234;28;20493;-62
2023/04/29 08:27:15;;;;;;;27.70;13.67;;;15.20;99.20;;;;;;5074362;28;20478;-62
2023/04/29 08:29:41;;;;;;;21.00;11.00;;;15.00;98.00;;;;;;5070515;27;20475;-62
2023/04/29 08:32:09;;;;;;;31.20;15.07;;;15.10;98.40;;;;;;5082124;28;20479;-62
2023/04/29 08:34:36;;;;;;;29.73;14.17;;;15.10;98.70;;;;;;5061866;28;20488;-62
2023/04/29 08:37:03;;;;;;;32.23;16.93;;;15.10;98.80;;;;;;5063310;28;21013;-62
2023/04/29 08:39:30;;;;;;;40.80;17.10;;;15.00;98.10;;;;;;5080018;28;20470;-61
2023/04/29 08:41:58;;;;;;;30.13;13.17;;;15.00;98.30;;;;;;5079975;28;20628;-62
2023/04/29 08:44:26;;;;;;;43.10;16.90;;;15.00;98.70;;;;;;5078591;28;20470;-62
2023/04/29 08:46:54;;;;;;;23.67;12.60;;;15.00;98.70;;;;;;5077414;28;20555;-62
2023/04/29 08:49:22;;;;;;;46.47;18.63;;;15.00;98.50;;;;;;5074870;28;20482;-62
2023/04/29 08:51:50;;;;;;;22.93;12.07;;;15.00;98.50;;;;;;5077943;28;20482;-62
2023/04/29 08:54:17;;;;;;;29.77;14.07;;;15.10;98.30;;;;;;5070878;27;20487;-62
2023/04/29 08:56:46;;;;;;;19.27;10.67;;;15.10;98.60;;;;;;5073654;28;20502;-62
2023/04/29 08:59:14;;;;;;;26.40;13.00;;;15.10;99.20;;;;;;5065405;28;21037;-61
2023/04/29 09:01:43;;;;;;;27.40;12.30;;;15.20;99.00;;;;;;5064194;28;20481;-62
2023/04/29 09:04:20;;;;;;;26.83;12.33;;;15.10;98.30;;;;;;5073085;28;20549;-62
2023/04/29 09:06:48;;;;;;;26.20;13.40;;;15.20;98.10;;;;;;5064374;28;20845;-62
2023/04/29 09:09:16;;;;;;;38.87;14.27;;;15.20;98.00;;;;;;5080666;28;20479;-61
2023/04/29 09:11:42;;;;;;;19.43;10.70;;;15.20;98.50;;;;;;5078813;28;20528;-62
2023/04/29 09:14:09;;;;;;;27.47;12.37;;;15.20;98.10;;;;;;5071723;28;20475;-61
2023/04/29 09:16:37;;;;;;;29.10;13.77;;;15.20;98.40;;;;;;5076157;28;20475;-61
2023/04/29 09:19:04;;;;;;;48.00;13.80;;;15.30;98.20;;;;;;5080528;27;20474;-62
2023/04/29 09:21:32;;;;;;;36.57;17.47;;;15.40;99.00;;;;;;5077494;28;20478;-62
2023/04/29 09:24:01;;;;;;;22.80;11.37;;;15.40;98.50;;;;;;5076725;28;21228;-62
2023/04/29 09:26:34;;;;;;;31.60;14.30;;;15.40;97.90;;;;;;5062607;28;21074;-62
2023/04/29 09:29:08;;;;;;;29.63;14.20;;;15.50;98.40;;;;;;5069704;28;20502;-62
2023/04/29 09:31:35;;;;;;;36.73;14.40;;;15.60;98.90;;;;;;5074679;28;20470;-61
2023/04/29 09:34:01;;;;;;;24.83;11.43;;;15.60;98.00;;;;;;5076784;28;20510;-62
2023/04/29 09:36:43;;;;;;;33.73;15.83;;;15.80;98.40;;;;;;5067819;27;20493;-61
2023/04/29 09:39:12;;;;;;;32.07;12.53;;;16.00;98.60;;;;;;5088490;28;21070;-61
2023/04/29 09:41:41;;;;;;;28.20;13.73;;;16.00;97.60;;;;;;5070838;28;20476;-62
2023/04/29 09:44:09;;;;;;;26.07;13.00;;;16.00;97.20;;;;;;5045355;28;20478;-61
2023/04/29 09:46:36;;;;;;;23.10;11.23;;;16.00;97.20;;;;;;5071217;28;20478;-62
2023/04/29 09:49:05;;;;;;;22.03;12.10;;;16.00;97.90;;;;;;5062053;28;20479;-62
2023/04/29 09:51:32;;;;;;;35.63;15.07;;;16.00;97.10;;;;;;5066119;27;20801;-63
2023/04/29 09:54:00;;;;;;;26.67;11.10;;;16.00;96.90;;;;;;5082959;28;20553;-62
2023/04/29 09:56:29;;;;;;;29.40;16.03;;;16.00;96.70;;;;;;5069025;27;20499;-62
2023/04/29 09:58:57;;;;;;;19.60;11.60;;;16.00;97.10;;;;;;5069561;27;20482;-62
2023/04/29 10:01:26;;;;;;;37.07;16.83;;;16.10;97.50;;;;;;5063425;28;20837;-62
2023/04/29 10:03:56;;;;;;;19.33;11.10;;;16.10;97.00;;;;;;5068672;28;20491;-62
2023/04/29 10:06:25;;;;;;;40.07;21.23;;;16.20;97.20;;;;;;5068218;28;20482;-62
2023/04/29 10:08:52;;;;;;;17.33;11.70;;;16.20;96.50;;;;;;5076658;28;20478;-62
2023/04/29 10:11:19;;;;;;;32.97;15.70;;;16.20;97.10;;;;;;5071956;28;20474;-62
2023/04/29 10:13:49;;;;;;;16.23;9.10;;;16.20;96.80;;;;;;5039185;28;21182;-62
2023/04/29 10:16:27;;;;;;;28.33;14.63;;;16.10;96.40;;;;;;5075097;28;20467;-61
2023/04/29 10:18:55;;;;;;;18.80;11.13;;;16.10;96.30;;;;;;5077442;28;20732;-62
2023/04/29 10:21:28;;;;;;;31.17;17.10;;;16.10;96.80;;;;;;5072248;27;20593;-62
2023/04/29 10:23:57;;;;;;;28.90;12.97;;;16.20;97.60;;;;;;5074075;28;20578;-62
2023/04/29 10:26:27;;;;;;;25.00;14.03;;;16.40;96.80;;;;;;5075606;27;20474;-61
2023/04/29 10:28:55;;;;;;;14.60;9.70;;;16.30;96.30;;;;;;5074697;28;20475;-62
2023/04/29 10:31:25;;;;;;;34.03;18.37;;;16.30;96.50;;;;;;5067610;28;20469;-62
2023/04/29 10:33:55;;;;;;;20.80;10.03;;;16.30;96.20;;;;;;5047632;28;20858;-62
2023/04/29 10:36:22;;;;;;;32.67;16.53;;;16.30;97.20;;;;;;5074849;28;20824;-63
2023/04/29 10:38:53;;;;;;;17.00;10.70;;;16.50;97.10;;;;;;5068320;28;20478;-62
2023/04/29 10:41:24;;;;;;;32.73;16.07;;;16.50;96.40;;;;;;5018946;28;20583;-62
2023/04/29 10:43:51;;;;;;;13.97;9.07;;;16.50;95.90;;;;;;5075180;28;21245;-62
2023/04/29 10:46:21;;;;;;;30.10;15.07;;;16.50;96.00;;;;;;5067971;28;20476;-62
2023/04/29 10:48:49;;;;;;;21.27;10.73;;;16.60;96.20;;;;;;5056531;28;20494;-63
2023/04/29 10:51:30;;;;;;;24.07;11.90;;;16.60;96.10;;;;;;5055802;28;20483;-62
2023/04/29 10:54:08;;;;;;;20.97;11.90;;;16.70;96.20;;;;;;5004701;28;20638;-62
2023/04/29 10:56:40;;;;;;;21.30;12.60;;;16.60;96.20;;;;;;5032626;28;20946;-62
2023/04/29 10:59:11;;;;;;;30.30;15.03;;;16.70;96.70;;;;;;5042081;28;20478;-62
2023/04/29 11:01:44;;;;;;;20.40;10.97;;;16.70;96.20;;;;;;5034519;28;20562;-62
2023/04/29 11:04:12;;;;;;;22.37;11.50;;;16.70;96.50;;;;;;5039820;28;20482;-62
2023/04/29 11:06:44;;;;;;;26.13;13.80;;;16.70;95.60;;;;;;5044167;28;20484;-62
2023/04/29 11:09:13;;;;;;;24.67;12.97;;;16.80;96.50;;;;;;5030633;28;20977;-62
2023/04/29 11:11:45;;;;;;;27.53;11.20;;;16.80;96.10;;;;;;5030723;28;20476;-62
2023/04/29 11:14:14;;;;;;;29.80;13.70;;;16.70;96.60;;;;;;5038892;28;20474;-62
2023/04/29 11:16:50;;;;;;;24.80;12.13;;;16.60;95.90;;;;;;5025160;28;20479;-62
2023/04/29 11:19:17;;;;;;;38.53;16.17;;;16.70;96.60;;;;;;5041390;28;20483;-62
2023/04/29 11:21:46;;;;;;;24.93;12.90;;;16.60;96.30;;;;;;5051225;28;20480;-62
2023/04/29 11:24:14;;;;;;;25.33;10.97;;;16.50;96.00;;;;;;5046117;28;20515;-62
2023/04/29 11:26:42;;;;;;;26.00;12.73;;;16.40;96.10;;;;;;5044020;28;20490;-62
2023/04/29 11:29:10;;;;;;;22.17;12.00;;;16.30;95.90;;;;;;5057408;28;22503;-61
2023/04/29 11:31:37;;;;;;;28.23;12.67;;;16.20;96.60;;;;;;5048804;28;20591;-61
2023/04/29 11:34:07;;;;;;;16.77;9.80;;;16.20;96.80;;;;;;5059040;28;20470;-61
2023/04/29 11:36:34;;;;;;;27.83;13.40;;;;;;;;;;5066222;28;20477;-61
2023/04/29 11:39:03;;;;;;;21.63;11.73;;;16.30;96.50;;;;;;5046553;28;21109;-61
2023/04/29 11:41:31;;;;;;;27.87;14.30;;;16.30;96.40;;;;;;5080996;27;20545;-61
2023/04/29 11:43:58;;;;;;;20.33;11.80;;;16.30;97.00;;;;;;5078687;28;20498;-62
2023/04/29 11:46:27;;;;;;;35.77;17.53;;;16.30;96.30;;;;;;5074540;27;20521;-61
2023/04/29 11:48:54;;;;;;;16.90;9.70;;;16.20;95.80;;;;;;5070430;28;20571;-62
2023/04/29 11:51:22;;;;;;;30.80;13.53;;;16.20;96.40;;;;;;5065625;28;20502;-62
2023/04/29 11:53:51;;;;;;;25.10;14.00;;;16.30;96.60;;;;;;5077416;28;20909;-61
2023/04/29 11:56:21;;;;;;;35.93;15.40;;;16.30;96.10;;;;;;5072968;27;21010;-62
2023/04/29 11:58:48;;;;;;;24.53;10.60;;;16.30;96.60;;;;;;5074593;28;20486;-62
2023/04/29 12:01:15;;;;;;;20.27;11.70;;;16.30;95.80;;;;;;5072565;28;20483;-62
2023/04/29 12:03:45;;;;;;;21.23;12.80;;;16.40;96.50;;;;;;5070608;27;20493;-62
2023/04/29 12:06:14;;;;;;;19.57;10.60;;;16.30;96.50;;;;;;5087387;28;20478;-62
2023/04/29 12:08:42;;;;;;;19.10;11.67;;;16.40;96.50;;;;;;5052381;28;20494;-62
2023/04/29 12:11:09;;;;;;;24.93;12.60;;;16.40;96.10;;;;;;5063338;28;20487;-62
2023/04/29 12:13:36;;;;;;;23.03;12.20;;;16.40;96.70;;;;;;5071733;27;20485;-62
2023/04/29 12:16:04;;;;;;;20.90;11.90;;;16.40;96.70;;;;;;5069647;28;20622;-62
2023/04/29 12:18:31;;;;;;;27.90;13.10;;;16.40;97.00;;;;;;5077680;28;20475;-61
2023/04/29 12:20:58;;;;;;;28.53;12.10;;;16.50;96.60;;;;;;5080383;28;20978;-62
2023/04/29 12:23:26;;;;;;;43.80;17.10;;;16.50;96.20;;;;;;5075528;28;20491;-62
2023/04/29 12:25:56;;;;;;;26.47;12.37;;;16.50;96.00;;;;;;5070199;27;20550;-61
2023/04/29 12:28:24;;;;;;;38.57;16.17;;;16.50;96.20;;;;;;5086578;28;20478;-62
2023/04/29 12:30:52;;;;;;;23.33;12.07;;;16.50;96.30;;;;;;5071472;28;20506;-61
2023/04/29 12:33:20;;;;;;;43.00;15.57;;;16.60;96.50;;;;;;5071479;28;20471;-62
2023/04/29 12:35:48;;;;;;;21.77;10.07;;;16.60;96.80;;;;;;5066189;28;20911;-62
2023/04/29 12:38:17;;;;;;;30.53;14.00;;;16.70;96.30;;;;;;5063324;28;20551;-62
2023/04/29 12:40:44;;;;;;;30.90;9.33;;;16.50;95.50;;;;;;5072746;28;20593;-62
2023/04/29 12:43:12;;;;;;;27.03;11.80;;;16.50;95.80;;;;;;5074344;28;20804;-61